Bookmark and Share
Track history (hours):
 

Suula

Last reported at 2014-Apr-15 21:13 UTC. Time now 2014-Apr-16 10:44 UTC.
Position N 59°48' E 025°02'.

Length 140 m; draft 6.5 m.

Type: Tanker. MMSI: 230956996.

NotesDate/timePositionNaut miles runAvg speedWind from/ knotsBaromVisibWave heightAir tempDewpointWater temp
2014-Apr-15 21:13N 59°48' E 025°02'1015.9
2014-Apr-15 20:33N 59°46' E 024°42'1615.8
2014-Apr-15 19:33N 59°42' E 024°11'1615.6
2014-Apr-15 18:31N 59°37' E 023°41'6315.1
2014-Apr-15 14:19N 59°29' E 021°37'12 6.9
2014-Apr-15 12:34N 59°32' E 021°14'  
2014-Apr-11 15:33N 59°50' E 021°22'1010.3
2014-Apr-11 14:33N 59°39' E 021°22'1513.2
2014-Apr-11 13:27N 59°31' E 021°46'4213.5
2014-Apr-11 10:19N 59°38' E 023°08'1113.7
2014-Apr-11 09:32N 59°40' E 023°29'1313.5
2014-Apr-11 08:33N 59°44' E 023°54'1413.6
2014-Apr-11 07:33N 59°47' E 024°21'1313.5
2014-Apr-11 06:33N 59°50' E 024°47'1713.4
2014-Apr-11 05:15N 59°56' E 025°19'18 0.7
2014-Apr-10 01:33N 59°46' E 024°48'1514.8
2014-Apr-10 00:34N 59°43' E 024°19'1514.6
2014-Apr-09 23:33N 59°39' E 023°52'1514.5
2014-Apr-09 22:33N 59°34' E 023°24'5513.5
2014-Apr-09 18:30N 59°29' E 021°37'  
2014-Apr-07 13:33N 59°32' E 021°18'5315.1
2014-Apr-07 10:04N 59°37' E 023°02'815.2
2014-Apr-07 09:33N 59°39' E 023°17'1515.1
2014-Apr-07 08:33N 59°42' E 023°46'1715.1
2014-Apr-07 07:26N 59°47' E 024°18'1315.1
2014-Apr-07 06:33N 59°50' E 024°44'1815.1
2014-Apr-07 05:22N 59°55' E 025°18'14 0.6
2014-Apr-06 04:19N 59°44' E 025°01'1215.8
2014-Apr-06 03:34N 59°44' E 024°37'2015.8
2014-Apr-06 02:18N 59°40' E 023°59'1215.9
2014-Apr-06 01:34N 59°36' E 023°37'6115.1
2014-Apr-05 21:32N 59°29' E 021°37'  

Dump ship's entire track history

sailing weather and tide predictions

Suula — OJKZ — position and weather